| time (UTC) | temp F | wind direction | speed MPH | gust MPH | rain 1hr in | rain 24hr in | rain mn in | humidity % | barometer mb |
| 20260906220017 | 77 | 200 | 4.0 | 13.0 | 0.00 | 0.00 | 0.00 | 23 | 1008.5 |
| 20260906214519 | 76 | 188 | 5.0 | 12.0 | 0.00 | 0.00 | 0.00 | 24 | 1008.7 |
| 20260906213016 | 77 | 201 | 6.0 | 12.0 | 0.00 | 0.00 | 0.00 | 23 | 1008.9 |
| 20260906211513 | 76 | 295 | 1.0 | 6.0 | 0.00 | 0.00 | 0.00 | 23 | 1009.2 |
| 20260906210012 | 76 | 16 | 2.0 | 5.0 | 0.00 | 0.00 | 0.00 | 23 | 1009.2 |
| 20260906204510 | 76 | 208 | 0.0 | 4.0 | 0.00 | 0.00 | 0.00 | 24 | 1009.6 |
| 20260906203009 | 76 | 205 | 2.0 | 6.0 | 0.00 | 0.00 | 0.00 | 24 | 1009.8 |
| 20260906201508 | 75 | 218 | 4.0 | 6.0 | 0.00 | 0.00 | 0.00 | 21 | 1010.1 |
| 20260906200007 | 76 | 183 | 2.0 | 8.0 | 0.00 | 0.00 | 0.00 | 21 | 1010.2 |
| 20260906194506 | 77 | 197 | 4.0 | 8.0 | 0.00 | 0.00 | 0.00 | 20 | 1010.4 |
| 20260906193005 | 79 | 222 | 2.0 | 9.0 | 0.00 | 0.00 | 0.00 | 20 | 1010.4 |
| 20260906191504 | 77 | 181 | 1.0 | 9.0 | 0.00 | 0.00 | 0.00 | 20 | 1010.7 |
| 20260906190113 | 76 | 183 | 4.0 | 7.0 | 0.00 | 0.00 | 0.00 | 22 | 1010.9 |
| 20260906184557 | 75 | 51 | 3.0 | 9.0 | 0.00 | 0.00 | 0.00 | 23 | 1011.0 |
| 20260906183058 | 74 | 302 | 2.0 | 10.0 | 0.00 | 0.00 | 0.00 | 22 | 1011.3 |
| 20260906181554 | 73 | 57 | 4.0 | 9.0 | 0.00 | 0.00 | 0.00 | 25 | 1011.4 |
| 20260906180049 | 72 | 45 | 3.0 | 7.0 | 0.00 | 0.00 | 0.00 | 27 | 1011.6 |
| 20260906174547 | 72 | 5 | 3.0 | 9.0 | 0.00 | 0.00 | 0.00 | 29 | 1011.5 |
| 20260906173045 | 70 | 314 | 3.0 | 8.0 | 0.00 | 0.00 | 0.00 | 33 | 1011.8 |
| 20260906171542 | 69 | 321 | 2.0 | 6.0 | 0.00 | 0.00 | 0.00 | 34 | 1012.0 |
| 20260906170038 | 67 | 6 | 1.0 | 6.0 | 0.00 | 0.00 | 0.00 | 37 | 1012.1 |
| 20260906164537 | 67 | 11 | 2.0 | 4.0 | 0.00 | 0.00 | 0.00 | 38 | 1012.2 |
| 20260906163032 | 65 | 53 | 1.0 | 6.0 | 0.00 | 0.00 | 0.00 | 40 | 1012.3 |
| 20260906161529 | 65 | 28 | 3.0 | 7.0 | 0.00 | 0.00 | 0.00 | 43 | 1012.2 |
| 20260906160025 | 64 | 65 | 3.0 | 5.0 | 0.00 | 0.00 | 0.00 | 46 | 1012.1 |
| 20260906154521 | 62 | 60 | 0.0 | 0.0 | 0.00 | 0.00 | 0.00 | 54 | 1012.0 |
| 20260906153026 | 61 | 52 | 0.0 | 2.0 | 0.00 | 0.00 | 0.00 | 58 | 1012.2 |
| 20260906151514 | 55 | 140 | 0.0 | 1.0 | 0.00 | 0.00 | 0.00 | 66 | 1012.2 |
| 20260906150009 | 51 | 326 | 0.0 | 0.0 | 0.00 | 0.00 | 0.00 | 75 | 1012.4 |
| 20260906144508 | 47 | 326 | 0.0 | 1.0 | 0.00 | 0.00 | 0.00 | 85 | 1012.5 |
| 20260906143009 | 45 | 166 | 0.0 | 1.0 | 0.00 | 0.00 | 0.00 | 88 | 1012.6 |
| 20260906141605 | 44 | 166 | 0.0 | 0.0 | 0.00 | 0.00 | 0.00 | 90 | 1012.6 |
| 20260906140005 | 43 | 166 | 0.0 | 0.0 | 0.00 | 0.00 | 0.00 | 89 | 1012.6 |
| 20260906134507 | 42 | 136 | 0.0 | 2.0 | 0.00 | 0.00 | 0.00 | 92 | 1012.6 |
| 20260906133002 | 41 | 213 | 0.0 | 0.0 | 0.00 | 0.00 | 0.00 | 92 | 1012.6 |
| 20260906131600 | 41 | 213 | 0.0 | 1.0 | 0.00 | 0.00 | 0.00 | 92 | 1012.3 |
| 20260906130059 | 41 | 213 | 0.0 | 1.0 | 0.00 | 0.00 | 0.00 | 92 | 1012.0 |
| 20260906124556 | 41 | 214 | 0.0 | 0.0 | 0.00 | 0.00 | 0.00 | 92 | 1011.8 |
| 20260906123055 | 41 | 214 | 0.0 | 0.0 | 0.00 | 0.00 | 0.00 | 91 | 1011.8 |
| 20260906121553 | 41 | 214 | 0.0 | 0.0 | 0.00 | 0.00 | 0.00 | 92 | 1011.5 |
| 20260906120051 | 41 | 214 | 0.0 | 0.0 | 0.00 | 0.00 | 0.00 | 91 | 1011.3 |
| 20260906114604 | 41 | 213 | 0.0 | 0.0 | 0.00 | 0.00 | 0.00 | 90 | 1011.4 |
| 20260906113051 | 42 | 214 | 0.0 | 0.0 | 0.00 | 0.00 | 0.00 | 90 | 1011.5 |
| 20260906111553 | 42 | 214 | 0.0 | 0.0 | 0.00 | 0.00 | 0.00 | 91 | 1011.5 |
| 20260906110045 | 42 | 214 | 0.0 | 0.0 | 0.00 | 0.00 | 0.00 | 90 | 1011.4 |
| 20260906104556 | 42 | 214 | 0.0 | 0.0 | 0.00 | 0.00 | 0.00 | 90 | 1011.4 |
| 20260906103041 | 42 | 213 | 0.0 | 0.0 | 0.00 | 0.00 | 0.00 | 90 | 1011.2 |
| 20260906101540 | 43 | 214 | 0.0 | 0.0 | 0.00 | 0.00 | 0.00 | 90 | 1011.1 |
| 20260906100040 | 43 | 214 | 0.0 | 1.0 | 0.00 | 0.00 | 0.00 | 89 | 1011.0 |
| 20260906094538 | 43 | 214 | 0.0 | 1.0 | 0.00 | 0.00 | 0.00 | 90 | 1011.0 |
| 20260906093036 | 43 | 214 | 0.0 | 0.0 | 0.00 | 0.00 | 0.00 | 89 | 1011.1 |
| 20260906091536 | 43 | 214 | 0.0 | 1.0 | 0.00 | 0.00 | 0.00 | 89 | 1011.1 |
| 20260906090032 | 43 | 214 | 0.0 | 0.0 | 0.00 | 0.00 | 0.00 | 88 | 1010.9 |
| 20260906084530 | 44 | 214 | 0.0 | 1.0 | 0.00 | 0.00 | 0.00 | 88 | 1010.9 |
| 20260906083029 | 44 | 214 | 0.0 | 1.0 | 0.00 | 0.00 | 0.00 | 88 | 1010.8 |
| 20260906081527 | 44 | 214 | 0.0 | 0.0 | 0.00 | 0.00 | 0.00 | 87 | 1010.7 |
| 20260906080026 | 45 | 214 | 0.0 | 0.0 | 0.00 | 0.00 | 0.00 | 86 | 1010.4 |
| 20260906074527 | 45 | 214 | 0.0 | 0.0 | 0.00 | 0.00 | 0.00 | 86 | 1010.5 |
| 20260906073025 | 45 | 214 | 0.0 | 0.0 | 0.00 | 0.00 | 0.00 | 86 | 1010.6 |
| 20260906071521 | 46 | 214 | 0.0 | 1.0 | 0.00 | 0.00 | 0.00 | 85 | 1010.5 |
| 20260906070017 | 47 | 214 | 0.0 | 1.0 | 0.00 | 0.00 | 0.00 | 84 | 1010.4 |
| 20260906064515 | 47 | 214 | 0.0 | 0.0 | 0.00 | 0.00 | 0.00 | 84 | 1010.5 |
| 20260906063014 | 47 | 214 | 0.0 | 0.0 | 0.00 | 0.00 | 0.00 | 84 | 1010.3 |
| 20260906061511 | 48 | 214 | 0.0 | 1.0 | 0.00 | 0.00 | 0.00 | 83 | 1010.1 |
| 20260906060010 | 49 | 214 | 0.0 | 1.0 | 0.00 | 0.00 | 0.00 | 81 | 1009.8 |
| 20260906054509 | 49 | 217 | 0.0 | 0.0 | 0.00 | 0.00 | 0.00 | 81 | 1009.8 |
| 20260906053006 | 50 | 217 | 0.0 | 2.0 | 0.00 | 0.00 | 0.00 | 80 | 1009.7 |
| 20260906051506 | 50 | 217 | 0.0 | 1.0 | 0.00 | 0.00 | 0.00 | 79 | 1009.5 |
| 20260906050005 | 51 | 217 | 0.0 | 0.0 | 0.00 | 0.00 | 0.00 | 79 | 1009.4 |
| 20260906044505 | 51 | 217 | 0.0 | 0.0 | 0.00 | 0.00 | 0.00 | 77 | 1009.2 |
| 20260906043005 | 52 | 217 | 0.0 | 0.0 | 0.00 | 0.00 | 0.00 | 76 | 1009.1 |
| 20260906041506 | 53 | 217 | 0.0 | 2.0 | 0.00 | 0.00 | 0.00 | 75 | 1009.0 |
| 20260906040004 | 52 | 183 | 0.0 | 2.0 | 0.00 | 0.00 | 0.00 | 75 | 1009.1 |
| 20260906034506 | 53 | 174 | 0.0 | 1.0 | 0.00 | 0.00 | 0.00 | 74 | 1008.9 |
| 20260906033003 | 53 | 174 | 0.0 | 0.0 | 0.00 | 0.00 | 0.00 | 74 | 1008.8 |
| 20260906031503 | 55 | 174 | 0.0 | 0.0 | 0.00 | 0.00 | 0.00 | 74 | 1008.5 |
| 20260906030000 | 56 | 174 | 0.0 | 0.0 | 0.00 | 0.00 | 0.00 | 72 | 1008.2 |
| 20260906024616 | 57 | 174 | 0.0 | 0.0 | 0.00 | 0.00 | 0.00 | 70 | 1007.8 |
| 20260906023100 | 58 | 174 | 0.0 | 0.0 | 0.00 | 0.00 | 0.00 | 69 | 1007.7 |
| 20260906021600 | 59 | 174 | 0.0 | 0.0 | 0.00 | 0.00 | 0.00 | 66 | 1007.4 |
| 20260906020100 | 60 | 174 | 0.0 | 0.0 | 0.00 | 0.00 | 0.00 | 64 | 1007.1 |
| 20260906014608 | 60 | 167 | 0.0 | 0.0 | 0.00 | 0.00 | 0.00 | 65 | 1007.0 |
| 20260906013058 | 61 | 169 | 0.0 | 0.0 | 0.00 | 0.00 | 0.00 | 63 | 1006.8 |
| 20260906011559 | 63 | 169 | 0.0 | 0.0 | 0.00 | 0.00 | 0.00 | 59 | 1006.5 |
| 20260906010057 | 65 | 157 | 0.0 | 2.0 | 0.00 | 0.00 | 0.00 | 55 | 1006.3 |
| 20260906004557 | 66 | 155 | 0.0 | 0.0 | 0.00 | 0.00 | 0.00 | 55 | 1006.3 |
| 20260906003056 | 68 | 155 | 0.0 | 0.0 | 0.00 | 0.00 | 0.00 | 51 | 1006.2 |
| 20260906001553 | 69 | 155 | 0.0 | 4.0 | 0.00 | 0.00 | 0.00 | 45 | 1006.2 |
| 20260906000052 | 69 | 203 | 0.0 | 3.0 | 0.00 | 0.00 | 0.00 | 46 | 1006.2 |
| 20260905234606 | 69 | 195 | 0.0 | 4.0 | 0.00 | 0.00 | 0.00 | 46 | 1006.2 |
| 20260905233050 | 69 | 210 | 2.0 | 5.0 | 0.00 | 0.00 | 0.00 | 47 | 1006.0 |
| 20260905231553 | 68 | 204 | 0.0 | 3.0 | 0.00 | 0.00 | 0.00 | 50 | 1006.3 |
| 20260905230105 | 69 | 255 | 0.0 | 3.0 | 0.00 | 0.00 | 0.00 | 52 | 1006.5 |
| 20260905224546 | 71 | 219 | 0.0 | 3.0 | 0.00 | 0.00 | 0.00 | 44 | 1006.7 |
| 20260905223045 | 71 | 300 | 0.0 | 8.0 | 0.00 | 0.00 | 0.00 | 43 | 1006.3 |
| 20260905221546 | 72 | 309 | 3.0 | 10.0 | 0.00 | 0.00 | 0.00 | 41 | 1006.3 |
| 20260905220043 | 72 | 302 | 2.0 | 13.0 | 0.00 | 0.00 | 0.00 | 44 | 1006.4 |